sensor_id;sensor_type;location;lat;lon;timestamp;pressure;altitude;pressure_sealevel;temperature;humidity
8705;BME280;4389;41.932;25.904;2022-12-11T00:01:48;98945.91;;;17.84;90.00
8705;BME280;4389;41.932;25.904;2022-12-11T00:04:14;98932.75;;;17.83;89.96
8705;BME280;4389;41.932;25.904;2022-12-11T00:06:43;98939.31;;;17.87;89.57
8705;BME280;4389;41.932;25.904;2022-12-11T00:09:09;98930.31;;;17.99;87.69
8705;BME280;4389;41.932;25.904;2022-12-11T00:11:37;98945.72;;;18.04;87.50
8705;BME280;4389;41.932;25.904;2022-12-11T00:14:05;98937.69;;;18.04;87.76
8705;BME280;4389;41.932;25.904;2022-12-11T00:16:32;98930.84;;;18.08;87.72
8705;BME280;4389;41.932;25.904;2022-12-11T00:18:58;98945.63;;;18.10;86.90
8705;BME280;4389;41.932;25.904;2022-12-11T00:21:25;98940.22;;;18.17;86.62
8705;BME280;4389;41.932;25.904;2022-12-11T00:23:52;98950.50;;;18.20;86.45
8705;BME280;4389;41.932;25.904;2022-12-11T00:26:19;98942.25;;;18.21;86.31
8705;BME280;4389;41.932;25.904;2022-12-11T00:28:46;98934.88;;;18.17;86.34
8705;BME280;4389;41.932;25.904;2022-12-11T00:31:16;98928.69;;;18.16;87.02
8705;BME280;4389;41.932;25.904;2022-12-11T00:33:44;98921.13;;;18.13;86.89
8705;BME280;4389;41.932;25.904;2022-12-11T00:36:16;98918.44;;;18.13;87.22
8705;BME280;4389;41.932;25.904;2022-12-11T00:38:43;98914.25;;;18.17;87.52
8705;BME280;4389;41.932;25.904;2022-12-11T00:41:10;98917.19;;;18.16;87.23
8705;BME280;4389;41.932;25.904;2022-12-11T00:43:37;98905.25;;;18.12;87.37
8705;BME280;4389;41.932;25.904;2022-12-11T00:46:04;98884.22;;;18.15;87.08
8705;BME280;4389;41.932;25.904;2022-12-11T00:48:32;98883.47;;;18.08;87.26
8705;BME280;4389;41.932;25.904;2022-12-11T00:50:59;98881.00;;;18.07;87.35
8705;BME280;4389;41.932;25.904;2022-12-11T00:53:26;98887.25;;;18.01;87.61
8705;BME280;4389;41.932;25.904;2022-12-11T00:55:53;98891.34;;;18.03;87.87
8705;BME280;4389;41.932;25.904;2022-12-11T00:58:20;98886.59;;;18.05;87.61
8705;BME280;4389;41.932;25.904;2022-12-11T01:00:47;98869.94;;;18.03;88.62
8705;BME280;4389;41.932;25.904;2022-12-11T01:03:15;98884.66;;;17.94;89.09
8705;BME280;4389;41.932;25.904;2022-12-11T01:05:51;98885.81;;;17.80;90.10
8705;BME280;4389;41.932;25.904;2022-12-11T01:08:18;98885.03;;;17.80;90.46
8705;BME280;4389;41.932;25.904;2022-12-11T01:10:45;98869.22;;;17.72;91.01
8705;BME280;4389;41.932;25.904;2022-12-11T01:13:11;98858.41;;;17.85;89.83
8705;BME280;4389;41.932;25.904;2022-12-11T01:15:40;98856.47;;;17.92;89.62
8705;BME280;4389;41.932;25.904;2022-12-11T01:18:07;98840.41;;;17.92;90.24
8705;BME280;4389;41.932;25.904;2022-12-11T01:20:36;98834.78;;;17.82;90.42
8705;BME280;4389;41.932;25.904;2022-12-11T01:23:05;98830.00;;;17.84;90.79
8705;BME280;4389;41.932;25.904;2022-12-11T01:25:34;98828.97;;;17.85;91.16
8705;BME280;4389;41.932;25.904;2022-12-11T01:28:03;98825.22;;;17.86;90.90
8705;BME280;4389;41.932;25.904;2022-12-11T01:30:30;98818.25;;;17.85;90.81
8705;BME280;4389;41.932;25.904;2022-12-11T01:32:56;98818.88;;;17.87;90.76
8705;BME280;4389;41.932;25.904;2022-12-11T01:35:24;98810.00;;;17.86;90.64
8705;BME280;4389;41.932;25.904;2022-12-11T01:37:51;98797.53;;;17.98;89.32
8705;BME280;4389;41.932;25.904;2022-12-11T01:40:20;98812.28;;;18.01;89.32
8705;BME280;4389;41.932;25.904;2022-12-11T01:42:48;98815.66;;;17.96;89.00
8705;BME280;4389;41.932;25.904;2022-12-11T01:45:25;98829.66;;;17.98;88.91
8705;BME280;4389;41.932;25.904;2022-12-11T01:47:56;98818.84;;;18.05;88.76
8705;BME280;4389;41.932;25.904;2022-12-11T01:50:26;98813.13;;;18.01;88.44
8705;BME280;4389;41.932;25.904;2022-12-11T01:52:54;98818.13;;;18.16;87.73
8705;BME280;4389;41.932;25.904;2022-12-11T01:55:22;98808.25;;;18.28;87.26
8705;BME280;4389;41.932;25.904;2022-12-11T01:57:50;98805.91;;;18.38;86.92
8705;BME280;4389;41.932;25.904;2022-12-11T02:00:18;98798.13;;;18.48;86.34
8705;BME280;4389;41.932;25.904;2022-12-11T02:02:46;98802.09;;;18.57;85.64
8705;BME280;4389;41.932;25.904;2022-12-11T02:05:13;98790.03;;;18.66;85.16
8705;BME280;4389;41.932;25.904;2022-12-11T02:07:42;98794.34;;;18.67;85.33
8705;BME280;4389;41.932;25.904;2022-12-11T02:10:11;98783.38;;;18.68;85.31
8705;BME280;4389;41.932;25.904;2022-12-11T02:12:45;98771.41;;;18.71;84.93
8705;BME280;4389;41.932;25.904;2022-12-11T02:15:18;98761.88;;;18.75;84.99
8705;BME280;4389;41.932;25.904;2022-12-11T02:17:52;98767.22;;;18.75;85.32
8705;BME280;4389;41.932;25.904;2022-12-11T02:20:23;98749.97;;;18.71;85.57
8705;BME280;4389;41.932;25.904;2022-12-11T02:23:11;98748.91;;;18.72;85.38
8705;BME280;4389;41.932;25.904;2022-12-11T02:25:51;98735.50;;;18.72;85.40
8705;BME280;4389;41.932;25.904;2022-12-11T02:28:24;98738.91;;;18.78;84.89
8705;BME280;4389;41.932;25.904;2022-12-11T02:30:59;98749.31;;;18.87;84.28
8705;BME280;4389;41.932;25.904;2022-12-11T02:33:33;98752.56;;;18.88;84.70
8705;BME280;4389;41.932;25.904;2022-12-11T02:36:03;98748.47;;;18.86;84.01
8705;BME280;4389;41.932;25.904;2022-12-11T02:38:33;98763.28;;;18.88;84.02
8705;BME280;4389;41.932;25.904;2022-12-11T02:41:01;98746.38;;;18.88;83.64
8705;BME280;4389;41.932;25.904;2022-12-11T02:43:33;98748.34;;;18.92;83.82
8705;BME280;4389;41.932;25.904;2022-12-11T02:46:02;98730.66;;;18.91;83.56
8705;BME280;4389;41.932;25.904;2022-12-11T02:48:31;98731.81;;;18.95;83.11
8705;BME280;4389;41.932;25.904;2022-12-11T02:50:59;98734.50;;;18.95;82.89
8705;BME280;4389;41.932;25.904;2022-12-11T02:53:28;98729.38;;;18.94;82.97
8705;BME280;4389;41.932;25.904;2022-12-11T02:56:01;98728.56;;;18.93;82.89
8705;BME280;4389;41.932;25.904;2022-12-11T02:58:32;98700.72;;;18.94;82.89
8705;BME280;4389;41.932;25.904;2022-12-11T03:00:59;98730.19;;;18.94;82.82
8705;BME280;4389;41.932;25.904;2022-12-11T03:03:27;98731.34;;;18.98;83.04
8705;BME280;4389;41.932;25.904;2022-12-11T03:05:55;98740.44;;;18.97;82.48
8705;BME280;4389;41.932;25.904;2022-12-11T03:08:22;98720.75;;;19.03;81.77
8705;BME280;4389;41.932;25.904;2022-12-11T03:10:49;98722.94;;;19.06;81.77
8705;BME280;4389;41.932;25.904;2022-12-11T03:13:18;98733.22;;;19.09;81.78
8705;BME280;4389;41.932;25.904;2022-12-11T03:15:53;98719.69;;;19.04;82.65
8705;BME280;4389;41.932;25.904;2022-12-11T03:18:28;98735.66;;;18.99;83.09
8705;BME280;4389;41.932;25.904;2022-12-11T03:21:02;98743.00;;;18.92;83.56
8705;BME280;4389;41.932;25.904;2022-12-11T03:23:33;98747.06;;;18.83;84.69
8705;BME280;4389;41.932;25.904;2022-12-11T03:26:07;98741.13;;;18.82;85.03
8705;BME280;4389;41.932;25.904;2022-12-11T03:28:40;98728.41;;;18.66;86.29
8705;BME280;4389;41.932;25.904;2022-12-11T03:31:13;98721.72;;;18.57;87.37
8705;BME280;4389;41.932;25.904;2022-12-11T03:33:45;98726.84;;;18.47;88.55
8705;BME280;4389;41.932;25.904;2022-12-11T03:36:18;98715.56;;;18.45;88.54
8705;BME280;4389;41.932;25.904;2022-12-11T03:38:49;98699.19;;;18.35;89.06
8705;BME280;4389;41.932;25.904;2022-12-11T03:41:18;98687.69;;;18.34;88.70
8705;BME280;4389;41.932;25.904;2022-12-11T03:43:47;98690.25;;;18.41;87.68
8705;BME280;4389;41.932;25.904;2022-12-11T03:46:17;98683.00;;;18.30;88.35
8705;BME280;4389;41.932;25.904;2022-12-11T03:48:47;98675.34;;;18.33;88.42
8705;BME280;4389;41.932;25.904;2022-12-11T03:51:16;98689.09;;;18.37;88.45
8705;BME280;4389;41.932;25.904;2022-12-11T03:53:44;98690.00;;;18.31;89.43
8705;BME280;4389;41.932;25.904;2022-12-11T03:56:13;98687.16;;;18.26;90.21
8705;BME280;4389;41.932;25.904;2022-12-11T03:58:42;98692.53;;;18.26;90.70
8705;BME280;4389;41.932;25.904;2022-12-11T04:01:10;98682.28;;;18.23;89.98
8705;BME280;4389;41.932;25.904;2022-12-11T04:03:39;98687.13;;;18.14;90.65
8705;BME280;4389;41.932;25.904;2022-12-11T04:06:06;98708.19;;;18.11;90.49
8705;BME280;4389;41.932;25.904;2022-12-11T04:08:33;98690.41;;;18.28;88.89
8705;BME280;4389;41.932;25.904;2022-12-11T04:11:02;98700.25;;;18.34;88.68
8705;BME280;4389;41.932;25.904;2022-12-11T04:13:46;98700.63;;;18.37;88.42
8705;BME280;4389;41.932;25.904;2022-12-11T04:16:33;98687.44;;;18.36;88.64
8705;BME280;4389;41.932;25.904;2022-12-11T04:19:00;98699.81;;;18.37;88.38
8705;BME280;4389;41.932;25.904;2022-12-11T04:21:45;98683.84;;;18.42;88.60
8705;BME280;4389;41.932;25.904;2022-12-11T04:24:29;98680.81;;;18.38;88.73
8705;BME280;4389;41.932;25.904;2022-12-11T04:26:56;98677.91;;;18.40;89.26
8705;BME280;4389;41.932;25.904;2022-12-11T04:29:23;98675.56;;;18.32;90.22
8705;BME280;4389;41.932;25.904;2022-12-11T04:31:49;98674.97;;;18.30;91.61
8705;BME280;4389;41.932;25.904;2022-12-11T04:34:18;98666.84;;;18.07;93.39
8705;BME280;4389;41.932;25.904;2022-12-11T04:36:44;98669.00;;;17.87;95.84
8705;BME280;4389;41.932;25.904;2022-12-11T04:39:11;98671.38;;;17.77;97.41
8705;BME280;4389;41.932;25.904;2022-12-11T04:41:38;98669.50;;;17.66;97.77
8705;BME280;4389;41.932;25.904;2022-12-11T04:44:06;98669.91;;;17.63;99.28
8705;BME280;4389;41.932;25.904;2022-12-11T04:46:33;98675.72;;;17.60;99.26
8705;BME280;4389;41.932;25.904;2022-12-11T04:49:00;98688.50;;;17.58;99.44
8705;BME280;4389;41.932;25.904;2022-12-11T04:51:28;98686.28;;;17.55;99.59
8705;BME280;4389;41.932;25.904;2022-12-11T04:53:56;98691.41;;;17.56;99.37
8705;BME280;4389;41.932;25.904;2022-12-11T04:56:24;98689.41;;;17.52;99.32
8705;BME280;4389;41.932;25.904;2022-12-11T04:58:50;98684.97;;;17.46;100.00
8705;BME280;4389;41.932;25.904;2022-12-11T05:01:19;98667.28;;;17.45;99.68
8705;BME280;4389;41.932;25.904;2022-12-11T05:03:46;98670.06;;;17.50;99.44
8705;BME280;4389;41.932;25.904;2022-12-11T05:06:14;98665.19;;;17.47;99.25
8705;BME280;4389;41.932;25.904;2022-12-11T05:08:42;98657.59;;;17.44;100.00
8705;BME280;4389;41.932;25.904;2022-12-11T05:11:11;98631.91;;;17.43;100.00
8705;BME280;4389;41.932;25.904;2022-12-11T05:13:39;98634.44;;;17.38;99.69
8705;BME280;4389;41.932;25.904;2022-12-11T05:16:07;98619.56;;;17.42;100.00
8705;BME280;4389;41.932;25.904;2022-12-11T05:18:34;98623.28;;;17.41;99.75
8705;BME280;4389;41.932;25.904;2022-12-11T05:21:03;98627.81;;;17.40;100.00
8705;BME280;4389;41.932;25.904;2022-12-11T05:23:31;98629.84;;;17.45;99.71
8705;BME280;4389;41.932;25.904;2022-12-11T05:26:00;98629.97;;;17.50;99.25
8705;BME280;4389;41.932;25.904;2022-12-11T05:28:32;98624.28;;;17.58;98.18
8705;BME280;4389;41.932;25.904;2022-12-11T05:31:01;98621.34;;;17.66;97.76
8705;BME280;4389;41.932;25.904;2022-12-11T05:33:28;98627.84;;;17.70;97.25
8705;BME280;4389;41.932;25.904;2022-12-11T05:35:55;98618.19;;;17.69;97.77
8705;BME280;4389;41.932;25.904;2022-12-11T05:38:23;98623.31;;;17.70;97.58
8705;BME280;4389;41.932;25.904;2022-12-11T05:40:54;98623.69;;;17.74;97.01
8705;BME280;4389;41.932;25.904;2022-12-11T05:43:24;98619.50;;;17.78;96.78
8705;BME280;4389;41.932;25.904;2022-12-11T05:45:51;98614.88;;;17.85;96.31
8705;BME280;4389;41.932;25.904;2022-12-11T05:48:18;98621.84;;;17.86;95.99
8705;BME280;4389;41.932;25.904;2022-12-11T05:50:55;98615.34;;;17.82;96.79
8705;BME280;4389;41.932;25.904;2022-12-11T05:53:22;98627.66;;;17.83;96.60
8705;BME280;4389;41.932;25.904;2022-12-11T05:55:49;98641.63;;;17.85;96.87
8705;BME280;4389;41.932;25.904;2022-12-11T05:58:16;98645.81;;;17.81;97.18
8705;BME280;4389;41.932;25.904;2022-12-11T06:00:45;98656.97;;;17.78;96.88
8705;BME280;4389;41.932;25.904;2022-12-11T06:03:12;98663.50;;;17.82;96.57
8705;BME280;4389;41.932;25.904;2022-12-11T06:05:40;98663.66;;;17.87;96.02
8705;BME280;4389;41.932;25.904;2022-12-11T06:08:07;98672.38;;;17.94;95.51
8705;BME280;4389;41.932;25.904;2022-12-11T06:10:34;98679.28;;;18.01;95.07
8705;BME280;4389;41.932;25.904;2022-12-11T06:13:01;98687.09;;;18.03;94.33
8705;BME280;4389;41.932;25.904;2022-12-11T06:15:29;98675.00;;;18.12;94.05
8705;BME280;4389;41.932;25.904;2022-12-11T06:17:57;98687.22;;;18.08;94.31
8705;BME280;4389;41.932;25.904;2022-12-11T06:20:24;98687.03;;;18.21;93.89
8705;BME280;4389;41.932;25.904;2022-12-11T06:22:50;98665.03;;;18.19;93.91
8705;BME280;4389;41.932;25.904;2022-12-11T06:25:17;98662.13;;;18.20;93.66
8705;BME280;4389;41.932;25.904;2022-12-11T06:27:44;98646.50;;;18.17;93.84
8705;BME280;4389;41.932;25.904;2022-12-11T06:30:11;98651.41;;;18.20;94.04
8705;BME280;4389;41.932;25.904;2022-12-11T06:32:38;98650.59;;;18.20;94.48
8705;BME280;4389;41.932;25.904;2022-12-11T06:35:07;98668.28;;;18.21;94.23
8705;BME280;4389;41.932;25.904;2022-12-11T06:37:34;98671.69;;;18.28;93.84
8705;BME280;4389;41.932;25.904;2022-12-11T06:40:01;98679.47;;;18.18;94.42
8705;BME280;4389;41.932;25.904;2022-12-11T06:42:28;98695.78;;;18.28;94.46
8705;BME280;4389;41.932;25.904;2022-12-11T06:44:55;98701.53;;;18.31;93.91
8705;BME280;4389;41.932;25.904;2022-12-11T06:47:24;98696.09;;;18.38;93.03
8705;BME280;4389;41.932;25.904;2022-12-11T06:49:52;98696.91;;;18.50;91.74
8705;BME280;4389;41.932;25.904;2022-12-11T06:52:21;98687.84;;;18.51;91.39
8705;BME280;4389;41.932;25.904;2022-12-11T06:54:49;98696.13;;;18.61;90.84
8705;BME280;4389;41.932;25.904;2022-12-11T06:57:16;98691.56;;;18.61;90.71
8705;BME280;4389;41.932;25.904;2022-12-11T06:59:43;98698.09;;;18.65;90.89
8705;BME280;4389;41.932;25.904;2022-12-11T07:02:11;98687.28;;;18.72;90.83
8705;BME280;4389;41.932;25.904;2022-12-11T07:04:39;98687.88;;;18.74;90.67
8705;BME280;4389;41.932;25.904;2022-12-11T07:07:06;98704.41;;;18.71;90.83
8705;BME280;4389;41.932;25.904;2022-12-11T07:09:35;98705.72;;;18.80;91.29
8705;BME280;4389;41.932;25.904;2022-12-11T07:12:03;98716.53;;;18.73;91.41
8705;BME280;4389;41.932;25.904;2022-12-11T07:14:31;98719.13;;;18.80;91.49
8705;BME280;4389;41.932;25.904;2022-12-11T07:16:58;98719.44;;;18.72;90.85
8705;BME280;4389;41.932;25.904;2022-12-11T07:19:25;98714.06;;;18.72;91.18
8705;BME280;4389;41.932;25.904;2022-12-11T07:21:52;98708.25;;;18.75;90.23
8705;BME280;4389;41.932;25.904;2022-12-11T07:24:19;98717.47;;;18.78;90.04
8705;BME280;4389;41.932;25.904;2022-12-11T07:26:47;98719.69;;;18.82;90.03
8705;BME280;4389;41.932;25.904;2022-12-11T07:29:14;98723.78;;;18.84;89.25
8705;BME280;4389;41.932;25.904;2022-12-11T07:31:41;98725.19;;;18.87;88.05
8705;BME280;4389;41.932;25.904;2022-12-11T07:34:11;98729.59;;;18.81;87.82
8705;BME280;4389;41.932;25.904;2022-12-11T07:36:38;98731.13;;;18.88;87.50
8705;BME280;4389;41.932;25.904;2022-12-11T07:39:05;98726.47;;;18.95;87.19
8705;BME280;4389;41.932;25.904;2022-12-11T07:41:33;98725.91;;;19.05;86.94
8705;BME280;4389;41.932;25.904;2022-12-11T07:44:02;98714.25;;;19.11;86.76
8705;BME280;4389;41.932;25.904;2022-12-11T07:46:30;98720.66;;;19.21;86.27
8705;BME280;4389;41.932;25.904;2022-12-11T07:48:57;98715.16;;;19.39;85.85
8705;BME280;4389;41.932;25.904;2022-12-11T07:51:27;98714.34;;;19.50;85.19
8705;BME280;4389;41.932;25.904;2022-12-11T07:53:55;98722.59;;;19.60;85.05
8705;BME280;4389;41.932;25.904;2022-12-11T07:56:22;98725.97;;;19.67;84.65
8705;BME280;4389;41.932;25.904;2022-12-11T07:58:49;98736.53;;;19.85;83.66
8705;BME280;4389;41.932;25.904;2022-12-11T08:01:19;98730.41;;;19.73;83.67
8705;BME280;4389;41.932;25.904;2022-12-11T08:03:47;98732.16;;;19.56;84.31
8705;BME280;4389;41.932;25.904;2022-12-11T08:06:14;98722.63;;;19.49;85.09
8705;BME280;4389;41.932;25.904;2022-12-11T08:08:41;98717.84;;;19.39;85.29
8705;BME280;4389;41.932;25.904;2022-12-11T08:11:09;98709.47;;;19.24;85.92
8705;BME280;4389;41.932;25.904;2022-12-11T08:13:36;98700.34;;;19.14;85.76
8705;BME280;4389;41.932;25.904;2022-12-11T08:16:04;98708.16;;;19.15;85.63
8705;BME280;4389;41.932;25.904;2022-12-11T08:18:33;98717.41;;;19.19;85.15
8705;BME280;4389;41.932;25.904;2022-12-11T08:21:04;98715.72;;;19.18;84.79
8705;BME280;4389;41.932;25.904;2022-12-11T08:23:31;98728.03;;;19.26;85.01
8705;BME280;4389;41.932;25.904;2022-12-11T08:25:58;98720.91;;;19.31;84.72
8705;BME280;4389;41.932;25.904;2022-12-11T08:28:25;98722.38;;;19.39;84.08
8705;BME280;4389;41.932;25.904;2022-12-11T08:30:52;98729.97;;;19.53;83.00
8705;BME280;4389;41.932;25.904;2022-12-11T08:33:18;98727.81;;;19.78;82.77
8705;BME280;4389;41.932;25.904;2022-12-11T08:35:47;98722.38;;;20.01;81.95
8705;BME280;4389;41.932;25.904;2022-12-11T08:38:13;98720.00;;;20.16;80.66
8705;BME280;4389;41.932;25.904;2022-12-11T08:40:40;98720.69;;;20.23;80.71
8705;BME280;4389;41.932;25.904;2022-12-11T08:43:07;98728.44;;;20.36;79.96
8705;BME280;4389;41.932;25.904;2022-12-11T08:45:34;98740.91;;;20.42;79.21
8705;BME280;4389;41.932;25.904;2022-12-11T08:48:01;98732.25;;;20.40;78.95
8705;BME280;4389;41.932;25.904;2022-12-11T08:50:28;98725.72;;;20.20;79.08
8705;BME280;4389;41.932;25.904;2022-12-11T08:52:56;98725.38;;;20.16;78.37
8705;BME280;4389;41.932;25.904;2022-12-11T08:55:23;98729.47;;;20.19;78.36
8705;BME280;4389;41.932;25.904;2022-12-11T08:57:50;98736.41;;;20.31;77.45
8705;BME280;4389;41.932;25.904;2022-12-11T09:00:17;98736.69;;;20.46;77.28
8705;BME280;4389;41.932;25.904;2022-12-11T09:02:44;98734.91;;;20.68;76.15
8705;BME280;4389;41.932;25.904;2022-12-11T09:05:10;98736.78;;;20.84;74.97
8705;BME280;4389;41.932;25.904;2022-12-11T09:07:38;98726.28;;;20.66;74.06
8705;BME280;4389;41.932;25.904;2022-12-11T09:10:08;98728.88;;;20.61;75.10
8705;BME280;4389;41.932;25.904;2022-12-11T09:12:35;98738.44;;;20.69;74.45
8705;BME280;4389;41.932;25.904;2022-12-11T09:15:03;98738.00;;;20.60;74.75
8705;BME280;4389;41.932;25.904;2022-12-11T09:17:30;98735.44;;;20.82;74.65
8705;BME280;4389;41.932;25.904;2022-12-11T09:19:57;98726.59;;;20.70;72.94
8705;BME280;4389;41.932;25.904;2022-12-11T09:22:23;98718.88;;;20.73;73.07
8705;BME280;4389;41.932;25.904;2022-12-11T09:24:50;98719.63;;;20.85;72.83
8705;BME280;4389;41.932;25.904;2022-12-11T09:27:18;98715.53;;;20.83;72.49
8705;BME280;4389;41.932;25.904;2022-12-11T09:29:47;98719.16;;;20.88;71.02
8705;BME280;4389;41.932;25.904;2022-12-11T09:32:14;98710.97;;;20.83;71.40
8705;BME280;4389;41.932;25.904;2022-12-11T09:34:40;98713.66;;;20.83;70.72
8705;BME280;4389;41.932;25.904;2022-12-11T09:37:07;98711.47;;;20.80;70.53
8705;BME280;4389;41.932;25.904;2022-12-11T09:39:34;98707.03;;;20.58;71.31
8705;BME280;4389;41.932;25.904;2022-12-11T09:42:05;98708.19;;;20.45;72.20
8705;BME280;4389;41.932;25.904;2022-12-11T09:44:40;98717.41;;;20.21;72.87
8705;BME280;4389;41.932;25.904;2022-12-11T09:47:31;98704.56;;;20.23;74.03
8705;BME280;4389;41.932;25.904;2022-12-11T09:50:05;98702.31;;;20.32;72.98
8705;BME280;4389;41.932;25.904;2022-12-11T09:52:39;98679.97;;;20.31;73.99
8705;BME280;4389;41.932;25.904;2022-12-11T09:55:14;98671.16;;;20.19;75.17
8705;BME280;4389;41.932;25.904;2022-12-11T09:57:47;98668.47;;;20.19;75.47
8705;BME280;4389;41.932;25.904;2022-12-11T10:00:24;98673.94;;;20.24;75.58
8705;BME280;4389;41.932;25.904;2022-12-11T10:03:14;98665.97;;;20.29;75.90
8705;BME280;4389;41.932;25.904;2022-12-11T10:05:50;98657.19;;;20.34;75.83
8705;BME280;4389;41.932;25.904;2022-12-11T10:08:28;98652.63;;;20.51;75.09
8705;BME280;4389;41.932;25.904;2022-12-11T10:11:04;98646.78;;;20.37;75.33
8705;BME280;4389;41.932;25.904;2022-12-11T10:13:40;98654.94;;;20.42;75.24
8705;BME280;4389;41.932;25.904;2022-12-11T10:16:17;98643.69;;;20.62;75.13
8705;BME280;4389;41.932;25.904;2022-12-11T10:18:48;98656.19;;;20.56;75.17
8705;BME280;4389;41.932;25.904;2022-12-11T10:21:15;98667.03;;;20.61;75.23
8705;BME280;4389;41.932;25.904;2022-12-11T10:23:49;98666.91;;;20.51;75.59
8705;BME280;4389;41.932;25.904;2022-12-11T10:26:19;98664.03;;;20.58;75.41
8705;BME280;4389;41.932;25.904;2022-12-11T10:28:47;98657.34;;;20.60;75.38
8705;BME280;4389;41.932;25.904;2022-12-11T10:31:17;98661.56;;;20.56;75.94
8705;BME280;4389;41.932;25.904;2022-12-11T10:33:53;98668.28;;;20.54;76.05
8705;BME280;4389;41.932;25.904;2022-12-11T10:36:27;98665.09;;;20.40;76.88
8705;BME280;4389;41.932;25.904;2022-12-11T10:38:55;98659.63;;;20.35;77.03
8705;BME280;4389;41.932;25.904;2022-12-11T10:41:24;98658.25;;;20.33;76.90
8705;BME280;4389;41.932;25.904;2022-12-11T10:43:54;98655.28;;;20.34;77.62
8705;BME280;4389;41.932;25.904;2022-12-11T10:46:24;98643.44;;;20.30;77.93
8705;BME280;4389;41.932;25.904;2022-12-11T10:48:54;98631.63;;;20.31;77.85
8705;BME280;4389;41.932;25.904;2022-12-11T10:51:23;98630.41;;;20.39;77.91
8705;BME280;4389;41.932;25.904;2022-12-11T10:53:52;98632.38;;;20.43;77.86
8705;BME280;4389;41.932;25.904;2022-12-11T10:56:25;98626.56;;;20.51;77.65
8705;BME280;4389;41.932;25.904;2022-12-11T10:58:54;98618.19;;;20.64;76.78
8705;BME280;4389;41.932;25.904;2022-12-11T11:01:24;98617.19;;;20.70;76.58
8705;BME280;4389;41.932;25.904;2022-12-11T11:03:55;98605.72;;;20.75;76.10
8705;BME280;4389;41.932;25.904;2022-12-11T11:06:23;98604.38;;;20.77;76.26
8705;BME280;4389;41.932;25.904;2022-12-11T11:08:52;98608.28;;;20.86;75.79
8705;BME280;4389;41.932;25.904;2022-12-11T11:11:23;98601.97;;;20.92;75.02
8705;BME280;4389;41.932;25.904;2022-12-11T11:13:52;98615.09;;;21.10;74.51
8705;BME280;4389;41.932;25.904;2022-12-11T11:16:31;98609.72;;;21.10;74.09
8705;BME280;4389;41.932;25.904;2022-12-11T11:19:01;98613.59;;;21.19;72.48
8705;BME280;4389;41.932;25.904;2022-12-11T11:21:28;98618.31;;;21.07;72.43
8705;BME280;4389;41.932;25.904;2022-12-11T11:23:56;98613.19;;;20.89;71.90
8705;BME280;4389;41.932;25.904;2022-12-11T11:26:23;98615.78;;;20.84;72.33
8705;BME280;4389;41.932;25.904;2022-12-11T11:28:52;98615.06;;;20.72;72.10
8705;BME280;4389;41.932;25.904;2022-12-11T11:31:29;98616.94;;;20.55;73.09
8705;BME280;4389;41.932;25.904;2022-12-11T11:33:59;98623.94;;;20.56;74.33
8705;BME280;4389;41.932;25.904;2022-12-11T11:36:30;98623.28;;;20.49;74.80
8705;BME280;4389;41.932;25.904;2022-12-11T11:39:06;98624.22;;;20.38;75.53
8705;BME280;4389;41.932;25.904;2022-12-11T11:41:45;98625.00;;;20.55;74.79
8705;BME280;4389;41.932;25.904;2022-12-11T11:44:17;98623.47;;;20.59;74.21
8705;BME280;4389;41.932;25.904;2022-12-11T11:46:48;98629.41;;;20.61;74.41
8705;BME280;4389;41.932;25.904;2022-12-11T11:49:24;98627.53;;;20.78;73.98
8705;BME280;4389;41.932;25.904;2022-12-11T11:51:57;98617.25;;;21.08;73.44
8705;BME280;4389;41.932;25.904;2022-12-11T11:54:30;98627.13;;;21.24;72.27
8705;BME280;4389;41.932;25.904;2022-12-11T11:57:00;98624.63;;;21.39;71.99
8705;BME280;4389;41.932;25.904;2022-12-11T11:59:33;98623.31;;;21.42;70.98
8705;BME280;4389;41.932;25.904;2022-12-11T12:02:12;98615.84;;;21.27;70.18
8705;BME280;4389;41.932;25.904;2022-12-11T12:04:42;98624.38;;;21.19;69.72
8705;BME280;4389;41.932;25.904;2022-12-11T12:07:27;98613.16;;;21.06;70.12
8705;BME280;4389;41.932;25.904;2022-12-11T12:10:01;98594.75;;;20.81;71.36
8705;BME280;4389;41.932;25.904;2022-12-11T12:12:37;98589.38;;;20.43;73.33
8705;BME280;4389;41.932;25.904;2022-12-11T12:15:16;98592.06;;;20.43;74.13
8705;BME280;4389;41.932;25.904;2022-12-11T12:17:51;98592.06;;;20.43;74.09
8705;BME280;4389;41.932;25.904;2022-12-11T12:20:26;98594.25;;;20.46;73.29
8705;BME280;4389;41.932;25.904;2022-12-11T12:23:06;98581.13;;;20.50;73.87
8705;BME280;4389;41.932;25.904;2022-12-11T12:25:42;98577.00;;;20.42;74.40
8705;BME280;4389;41.932;25.904;2022-12-11T12:28:21;98587.31;;;20.50;73.88
8705;BME280;4389;41.932;25.904;2022-12-11T12:31:03;98583.06;;;20.54;73.80
8705;BME280;4389;41.932;25.904;2022-12-11T12:33:46;98583.41;;;20.41;74.26
8705;BME280;4389;41.932;25.904;2022-12-11T12:36:25;98584.22;;;20.25;74.68
8705;BME280;4389;41.932;25.904;2022-12-11T12:38:56;98580.22;;;20.11;75.74
8705;BME280;4389;41.932;25.904;2022-12-11T12:41:35;98579.38;;;19.94;76.04
8705;BME280;4389;41.932;25.904;2022-12-11T12:44:14;98575.13;;;19.98;76.35
8705;BME280;4389;41.932;25.904;2022-12-11T12:46:51;98588.41;;;19.88;75.90
8705;BME280;4389;41.932;25.904;2022-12-11T12:49:34;98583.75;;;19.84;76.16
8705;BME280;4389;41.932;25.904;2022-12-11T12:52:05;98583.81;;;19.72;76.67
8705;BME280;4389;41.932;25.904;2022-12-11T12:54:36;98586.22;;;19.57;76.36
8705;BME280;4389;41.932;25.904;2022-12-11T12:57:05;98577.19;;;19.35;77.51
8705;BME280;4389;41.932;25.904;2022-12-11T12:59:32;98586.53;;;19.21;78.03
8705;BME280;4389;41.932;25.904;2022-12-11T13:02:00;98586.44;;;19.16;78.97
8705;BME280;4389;41.932;25.904;2022-12-11T13:04:37;98566.97;;;19.09;80.17
8705;BME280;4389;41.932;25.904;2022-12-11T13:07:18;98596.94;;;18.95;81.07
8705;BME280;4389;41.932;25.904;2022-12-11T13:10:03;98593.84;;;18.87;82.14
8705;BME280;4389;41.932;25.904;2022-12-11T13:12:41;98601.19;;;18.80;81.49
8705;BME280;4389;41.932;25.904;2022-12-11T13:15:33;98582.88;;;18.65;82.22
8705;BME280;4389;41.932;25.904;2022-12-11T13:18:02;98585.69;;;18.59;81.74
8705;BME280;4389;41.932;25.904;2022-12-11T13:20:31;98581.72;;;18.50;81.79
8705;BME280;4389;41.932;25.904;2022-12-11T13:23:16;98591.84;;;18.48;82.06
8705;BME280;4389;41.932;25.904;2022-12-11T13:25:50;98593.84;;;18.41;82.28